Terminal Aerodrome Forecast
Issued by NWS

Home | Current Version | Previous Version | Text Only | Print | Product List | Glossary Off
Versions: 1 2 3 4 5 6 7 8 9 10 11 12 13 14 15 16 17 18 19 20

000
FTUS43 KICT 311100
TAFRSL
TAF
KRSL 311134Z 3112/0112 20007KT P6SM VCTS SCT080CB BKN120
     FM311500 19025G35KT P6SM FEW090 SCT250
     FM010000 18013KT P6SM VCTS SCT070CB BKN100
     FM010600 06009KT 5SM BR SCT020=

USA.gov is the U.S. government's official web portal to all federal, state and local government web resources and services.